createdAt,value
2018-10-09T00:03:31.685Z,32.13
2018-10-09T00:08:26.223Z,32.97
2018-10-09T00:13:20.792Z,32.73
2018-10-09T00:18:15.398Z,30.40
2018-10-09T00:23:09.977Z,32.63
2018-10-09T00:28:04.496Z,32.97
2018-10-09T00:32:59.069Z,32.17
2018-10-09T00:37:53.688Z,32.03
2018-10-09T00:42:49.429Z,32.83
2018-10-09T00:47:44.047Z,31.90
2018-10-09T00:52:38.660Z,32.27
2018-10-09T00:57:33.213Z,31.97
2018-10-09T01:02:27.852Z,32.73
2018-10-09T01:07:22.641Z,29.00
2018-10-09T01:12:17.224Z,30.90
2018-10-09T01:17:11.737Z,30.33
2018-10-09T01:22:06.318Z,31.47
2018-10-09T01:27:00.797Z,31.93
2018-10-09T01:31:55.403Z,32.10
2018-10-09T01:36:50.053Z,29.47
2018-10-09T01:41:44.548Z,31.00
2018-10-09T01:46:39.076Z,31.57
2018-10-09T01:51:33.677Z,30.90
2018-10-09T01:56:28.183Z,31.80
2018-10-09T02:01:22.679Z,32.57
2018-10-09T02:06:17.589Z,32.07
2018-10-09T02:11:12.163Z,30.57
2018-10-09T02:16:07.210Z,31.87
2018-10-09T02:21:01.852Z,34.30
2018-10-09T02:25:56.425Z,34.13
2018-10-09T02:30:50.950Z,35.10
2018-10-09T02:35:45.449Z,34.53
2018-10-09T02:40:40.027Z,36.43
2018-10-09T02:45:34.610Z,37.37
2018-10-09T02:50:29.193Z,35.60
2018-10-09T02:55:23.729Z,35.97
2018-10-09T03:00:18.466Z,38.63
2018-10-09T03:05:13.119Z,38.77
2018-10-09T03:10:08.222Z,39.10
2018-10-09T03:15:02.758Z,37.03
2018-10-09T03:19:57.292Z,36.40
2018-10-09T03:24:51.847Z,36.50
2018-10-09T03:29:46.517Z,34.90
2018-10-09T03:34:41.098Z,36.17
2018-10-09T03:39:35.672Z,36.30
2018-10-09T03:44:30.200Z,36.03
2018-10-09T03:49:24.728Z,36.60
2018-10-09T03:54:19.436Z,32.83
2018-10-09T03:59:14.036Z,32.53
2018-10-09T04:04:08.807Z,35.03
2018-10-09T04:09:03.499Z,35.07
2018-10-09T04:13:58.003Z,35.70
2018-10-09T04:18:52.562Z,35.80
2018-10-09T04:23:47.172Z,36.37
2018-10-09T04:28:41.754Z,36.50
2018-10-09T04:33:36.310Z,36.50
2018-10-09T04:38:31.052Z,36.90
2018-10-09T04:43:25.961Z,36.43
2018-10-09T04:48:21.423Z,35.97
2018-10-09T04:53:16.129Z,37.13
2018-10-09T04:58:10.897Z,37.83
2018-10-09T05:03:05.584Z,37.20
2018-10-09T05:08:05.144Z,37.00
2018-10-09T05:13:00.147Z,36.37
2018-10-09T05:17:54.855Z,40.23
2018-10-09T05:22:49.536Z,39.67
2018-10-09T05:27:44.274Z,38.37
2018-10-09T05:32:39.013Z,41.87
2018-10-09T05:37:33.801Z,40.93
2018-10-09T05:42:28.464Z,44.20
2018-10-09T05:47:27.930Z,42.93
2018-10-09T05:52:22.415Z,20.83
2018-10-09T05:57:16.829Z,26.70
2018-10-09T06:02:11.917Z,32.90
2018-10-09T06:07:06.367Z,33.57
2018-10-09T06:12:00.769Z,33.63
2018-10-09T06:16:55.831Z,33.20
2018-10-09T06:21:50.432Z,35.00
2018-10-09T06:26:45.754Z,39.33
2018-10-09T06:31:40.351Z,36.53
2018-10-09T06:36:36.583Z,36.47
2018-10-09T06:41:31.762Z,36.60
2018-10-09T06:46:26.659Z,39.03
2018-10-09T06:51:27.014Z,41.37
2018-10-09T06:56:21.836Z,41.13
2018-10-09T07:01:16.403Z,37.43
2018-10-09T07:06:19.469Z,40.80
2018-10-09T07:11:17.366Z,39.50
2018-10-09T07:16:12.016Z,37.77
2018-10-09T07:21:09.731Z,39.07
2018-10-09T07:26:04.442Z,39.23
2018-10-09T07:30:59.634Z,39.63
2018-10-09T07:35:54.354Z,37.50
2018-10-09T07:40:49.044Z,41.87
2018-10-09T07:45:45.546Z,40.50
2018-10-09T07:50:40.556Z,38.37
2018-10-09T07:55:45.054Z,39.07
2018-10-09T08:00:43.383Z,38.33
2018-10-09T08:05:39.183Z,39.60
2018-10-09T08:10:43.508Z,41.53
2018-10-09T08:15:39.168Z,39.87
2018-10-09T08:20:44.936Z,38.77
2018-10-09T08:25:40.785Z,37.43
2018-10-09T08:30:35.445Z,37.23
2018-10-09T08:35:31.321Z,38.77
2018-10-09T08:40:27.780Z,39.20
2018-10-09T08:45:22.464Z,39.90
2018-10-09T08:50:28.421Z,39.20
2018-10-09T08:55:33.973Z,36.77
2018-10-09T09:00:48.819Z,38.70
2018-10-09T09:05:51.929Z,39.53
2018-10-09T09:10:57.431Z,36.60
2018-10-09T09:16:03.382Z,35.17
2018-10-09T09:21:03.241Z,36.80
2018-10-09T09:25:58.807Z,34.57
2018-10-09T09:31:10.786Z,31.50
2018-10-09T09:36:07.325Z,31.80
2018-10-09T09:41:04.061Z,31.77
2018-10-09T09:45:59.453Z,29.10
2018-10-09T09:50:54.196Z,31.30
2018-10-09T09:55:50.163Z,24.70
2018-10-09T10:00:50.352Z,20.43
2018-10-09T10:05:45.217Z,24.23
2018-10-09T10:10:39.737Z,22.17
2018-10-09T10:15:34.424Z,21.27
2018-10-09T10:20:29.224Z,21.53
2018-10-09T10:25:24.380Z,22.23
2018-10-09T10:30:19.048Z,21.87
2018-10-09T10:35:15.206Z,19.90
2018-10-09T10:40:10.439Z,23.00
2018-10-09T10:45:05.196Z,21.80
2018-10-09T10:50:00.672Z,21.07
2018-10-09T10:54:55.780Z,18.17
2018-10-09T10:59:50.670Z,17.77
2018-10-09T11:04:45.304Z,17.37
2018-10-09T11:09:43.237Z,17.53
2018-10-09T11:14:41.942Z,17.03
2018-10-09T11:19:37.599Z,16.67
2018-10-09T11:24:32.371Z,17.53
2018-10-09T11:29:27.105Z,16.07
2018-10-09T11:34:23.634Z,15.30
2018-10-09T11:39:18.633Z,14.83
2018-10-09T11:44:13.220Z,12.30
2018-10-09T11:49:08.017Z,16.83
2018-10-09T11:54:02.576Z,13.33
2018-10-09T11:58:57.226Z,14.57
2018-10-09T12:03:51.636Z,15.77
2018-10-09T12:08:46.077Z,14.40
2018-10-09T12:13:40.516Z,16.30
2018-10-09T12:18:34.944Z,13.08
2018-10-09T12:23:29.380Z,17.75
2018-10-09T12:28:24.047Z,16.95
2018-10-09T12:33:18.537Z,14.47
2018-10-09T12:38:13.672Z,17.85
2018-10-09T12:43:10.565Z,19.00
2018-10-09T12:48:05.373Z,18.10
2018-10-09T12:53:03.229Z,18.52
2018-10-09T12:57:58.257Z,19.65
2018-10-09T13:02:54.801Z,18.63
2018-10-09T13:07:49.502Z,18.60
2018-10-09T13:12:46.714Z,18.95
2018-10-09T13:17:52.031Z,18.20
2018-10-09T13:22:46.692Z,19.10
2018-10-09T13:27:41.853Z,17.87
2018-10-09T13:32:37.596Z,17.90
2018-10-09T13:37:32.628Z,16.52
2018-10-09T13:42:42.310Z,17.45
2018-10-09T13:47:52.259Z,16.37
2018-10-09T13:52:58.880Z,16.37
2018-10-09T13:58:10.180Z,16.00
2018-10-09T14:03:21.242Z,16.97
2018-10-09T14:08:34.025Z,15.50
2018-10-09T14:19:09.127Z,17.40
2018-10-09T14:29:28.798Z,16.83
2018-10-09T14:34:41.926Z,15.90
2018-10-09T14:39:48.582Z,15.33
2018-10-09T14:44:54.601Z,16.17
2018-10-09T14:55:14.157Z,15.83
2018-10-09T15:16:24.041Z,14.90
2018-10-09T15:21:32.758Z,16.30
2018-10-09T15:26:41.325Z,15.57
2018-10-09T15:31:51.767Z,15.23
2018-10-09T15:42:26.588Z,17.77
2018-10-09T15:47:39.080Z,17.67
2018-10-09T15:52:48.684Z,17.07
2018-10-09T15:57:53.523Z,18.00
2018-10-09T16:19:15.993Z,17.70
2018-10-09T16:24:28.952Z,18.00
2018-10-09T16:29:42.076Z,17.47
2018-10-09T16:36:07.248Z,17.53
2018-10-09T16:41:02.202Z,18.77
2018-10-09T16:45:56.882Z,19.03
2018-10-09T17:07:06.962Z,21.60
2018-10-09T17:12:02.553Z,21.90
2018-10-09T17:16:57.122Z,23.10
2018-10-09T17:21:51.696Z,21.93
2018-10-09T17:26:46.393Z,21.73
2018-10-09T17:47:55.922Z,24.93
2018-10-09T17:52:50.637Z,25.10
2018-10-09T17:57:45.333Z,22.13
2018-10-09T18:02:40.043Z,23.97
2018-10-09T18:07:35.374Z,22.13
2018-10-09T18:12:29.993Z,26.37
2018-10-09T18:17:24.676Z,26.63
2018-10-09T18:22:19.211Z,27.03
2018-10-09T18:27:13.746Z,26.63
2018-10-09T18:48:23.071Z,24.07
2018-10-09T18:53:18.896Z,24.93
2018-10-09T18:58:13.478Z,20.87
2018-10-09T19:03:08.511Z,21.53
2018-10-09T19:08:03.108Z,22.43
2018-10-09T19:29:12.618Z,28.23
2018-10-09T19:34:07.181Z,24.00
2018-10-09T19:39:01.861Z,28.83
2018-10-09T19:43:56.748Z,29.87
2018-10-09T19:48:51.297Z,32.10
2018-10-09T20:10:00.164Z,32.87
2018-10-09T20:14:55.278Z,32.10
2018-10-09T20:19:49.846Z,33.10
2018-10-09T20:24:44.591Z,31.93
2018-10-09T20:29:39.373Z,30.77
2018-10-09T20:39:59.160Z,32.57
2018-10-09T20:44:53.806Z,35.17
2018-10-09T20:49:48.383Z,32.50
2018-10-09T20:54:43.010Z,34.63
2018-10-09T21:15:52.827Z,31.07
2018-10-09T21:20:47.423Z,30.03
2018-10-09T21:25:41.962Z,28.33
2018-10-09T21:30:36.542Z,31.10
2018-10-09T21:35:31.078Z,29.63
2018-10-09T21:56:40.744Z,27.57
2018-10-09T22:01:35.344Z,26.50
2018-10-09T22:06:29.900Z,27.00
2018-10-09T22:11:24.439Z,27.40
2018-10-09T22:16:19.313Z,28.43
2018-10-09T22:37:28.440Z,29.63
2018-10-09T22:42:22.985Z,26.87
2018-10-09T22:47:17.529Z,27.90
2018-10-09T22:52:12.114Z,27.13
2018-10-09T22:57:06.690Z,28.00
2018-10-09T23:07:25.967Z,29.07
2018-10-09T23:12:20.585Z,31.27
2018-10-09T23:17:15.129Z,29.77
2018-10-09T23:22:09.684Z,32.20
2018-10-09T23:43:18.549Z,35.57
2018-10-09T23:48:13.077Z,37.07
2018-10-09T23:53:07.746Z,36.90
2018-10-09T23:58:02.315Z,36.57
